sensor_id;sensor_type;location;lat;lon;timestamp;P1;durP1;ratioP1;P2;durP2;ratioP2
7444;SDS011;3764;48.126;11.594;2022-11-20T00:01:20;3.97;;;2.60;;
7444;SDS011;3764;48.126;11.594;2022-11-20T00:03:48;4.05;;;2.67;;
7444;SDS011;3764;48.126;11.594;2022-11-20T00:06:17;2.78;;;2.10;;
7444;SDS011;3764;48.126;11.594;2022-11-20T00:08:45;2.25;;;2.05;;
7444;SDS011;3764;48.126;11.594;2022-11-20T00:11:14;3.05;;;1.75;;
7444;SDS011;3764;48.126;11.594;2022-11-20T00:13:42;3.13;;;2.15;;
7444;SDS011;3764;48.126;11.594;2022-11-20T00:16:10;3.05;;;2.40;;
7444;SDS011;3764;48.126;11.594;2022-11-20T00:18:39;3.40;;;2.40;;
7444;SDS011;3764;48.126;11.594;2022-11-20T00:21:07;3.83;;;2.30;;
7444;SDS011;3764;48.126;11.594;2022-11-20T00:23:37;2.55;;;2.33;;
7444;SDS011;3764;48.126;11.594;2022-11-20T00:26:05;3.15;;;2.85;;
7444;SDS011;3764;48.126;11.594;2022-11-20T00:28:34;3.10;;;2.70;;
7444;SDS011;3764;48.126;11.594;2022-11-20T00:31:02;2.72;;;2.50;;
7444;SDS011;3764;48.126;11.594;2022-11-20T00:33:30;4.30;;;2.55;;
7444;SDS011;3764;48.126;11.594;2022-11-20T00:36:02;3.22;;;2.55;;
7444;SDS011;3764;48.126;11.594;2022-11-20T00:38:31;3.88;;;2.85;;
7444;SDS011;3764;48.126;11.594;2022-11-20T00:40:59;4.57;;;2.53;;
7444;SDS011;3764;48.126;11.594;2022-11-20T00:43:27;3.00;;;2.45;;
7444;SDS011;3764;48.126;11.594;2022-11-20T00:45:57;3.08;;;2.30;;
7444;SDS011;3764;48.126;11.594;2022-11-20T00:48:24;3.38;;;2.70;;
7444;SDS011;3764;48.126;11.594;2022-11-20T00:50:52;3.97;;;2.70;;
7444;SDS011;3764;48.126;11.594;2022-11-20T00:53:21;4.20;;;2.78;;
7444;SDS011;3764;48.126;11.594;2022-11-20T00:55:54;7.20;;;2.72;;
7444;SDS011;3764;48.126;11.594;2022-11-20T00:58:22;2.65;;;2.38;;
7444;SDS011;3764;48.126;11.594;2022-11-20T01:00:50;4.10;;;2.75;;
7444;SDS011;3764;48.126;11.594;2022-11-20T01:03:18;2.90;;;2.45;;
7444;SDS011;3764;48.126;11.594;2022-11-20T01:05:45;4.68;;;2.30;;
7444;SDS011;3764;48.126;11.594;2022-11-20T01:08:12;2.38;;;2.15;;
7444;SDS011;3764;48.126;11.594;2022-11-20T01:10:40;5.32;;;3.20;;
7444;SDS011;3764;48.126;11.594;2022-11-20T01:13:09;3.13;;;2.53;;
7444;SDS011;3764;48.126;11.594;2022-11-20T01:15:55;3.33;;;2.35;;
7444;SDS011;3764;48.126;11.594;2022-11-20T01:18:28;3.08;;;2.60;;
7444;SDS011;3764;48.126;11.594;2022-11-20T01:20:55;3.83;;;2.85;;
7444;SDS011;3764;48.126;11.594;2022-11-20T01:23:29;8.82;;;2.80;;
7444;SDS011;3764;48.126;11.594;2022-11-20T01:26:00;4.10;;;2.90;;
7444;SDS011;3764;48.126;11.594;2022-11-20T01:28:28;3.85;;;2.83;;
7444;SDS011;3764;48.126;11.594;2022-11-20T01:30:56;3.50;;;2.80;;
7444;SDS011;3764;48.126;11.594;2022-11-20T01:33:23;7.35;;;3.38;;
7444;SDS011;3764;48.126;11.594;2022-11-20T01:35:51;4.55;;;2.65;;
7444;SDS011;3764;48.126;11.594;2022-11-20T01:38:20;2.80;;;2.50;;
7444;SDS011;3764;48.126;11.594;2022-11-20T01:40:53;3.05;;;2.60;;
7444;SDS011;3764;48.126;11.594;2022-11-20T01:43:22;4.50;;;2.65;;
7444;SDS011;3764;48.126;11.594;2022-11-20T01:48:44;4.25;;;3.20;;
7444;SDS011;3764;48.126;11.594;2022-11-20T01:51:18;3.45;;;2.35;;
7444;SDS011;3764;48.126;11.594;2022-11-20T01:53:50;3.85;;;2.30;;
7444;SDS011;3764;48.126;11.594;2022-11-20T01:56:19;4.30;;;2.75;;
7444;SDS011;3764;48.126;11.594;2022-11-20T01:58:48;2.90;;;2.55;;
7444;SDS011;3764;48.126;11.594;2022-11-20T02:01:18;4.43;;;3.00;;
7444;SDS011;3764;48.126;11.594;2022-11-20T02:03:47;3.60;;;2.58;;
7444;SDS011;3764;48.126;11.594;2022-11-20T02:06:17;6.70;;;2.80;;
7444;SDS011;3764;48.126;11.594;2022-11-20T02:08:49;4.32;;;2.63;;
7444;SDS011;3764;48.126;11.594;2022-11-20T02:11:17;3.78;;;2.70;;
7444;SDS011;3764;48.126;11.594;2022-11-20T02:13:44;3.15;;;2.60;;
7444;SDS011;3764;48.126;11.594;2022-11-20T02:16:14;3.05;;;2.75;;
7444;SDS011;3764;48.126;11.594;2022-11-20T02:18:42;3.60;;;2.90;;
7444;SDS011;3764;48.126;11.594;2022-11-20T02:21:13;4.55;;;2.47;;
7444;SDS011;3764;48.126;11.594;2022-11-20T02:24:04;4.07;;;2.72;;
7444;SDS011;3764;48.126;11.594;2022-11-20T02:26:37;4.10;;;2.90;;
7444;SDS011;3764;48.126;11.594;2022-11-20T02:29:08;5.70;;;2.60;;
7444;SDS011;3764;48.126;11.594;2022-11-20T02:31:36;2.70;;;2.20;;
7444;SDS011;3764;48.126;11.594;2022-11-20T02:34:05;2.70;;;2.30;;
7444;SDS011;3764;48.126;11.594;2022-11-20T02:36:32;3.20;;;2.55;;
7444;SDS011;3764;48.126;11.594;2022-11-20T02:39:00;2.97;;;2.47;;
7444;SDS011;3764;48.126;11.594;2022-11-20T02:41:34;4.20;;;2.75;;
7444;SDS011;3764;48.126;11.594;2022-11-20T02:44:11;3.88;;;2.35;;
7444;SDS011;3764;48.126;11.594;2022-11-20T02:46:38;3.35;;;2.60;;
7444;SDS011;3764;48.126;11.594;2022-11-20T02:49:17;3.20;;;2.58;;
7444;SDS011;3764;48.126;11.594;2022-11-20T02:51:44;3.75;;;2.83;;
7444;SDS011;3764;48.126;11.594;2022-11-20T02:54:11;2.90;;;2.50;;
7444;SDS011;3764;48.126;11.594;2022-11-20T02:56:40;5.82;;;2.85;;
7444;SDS011;3764;48.126;11.594;2022-11-20T02:59:07;3.30;;;2.90;;
7444;SDS011;3764;48.126;11.594;2022-11-20T03:01:35;4.55;;;3.17;;
7444;SDS011;3764;48.126;11.594;2022-11-20T03:04:02;8.18;;;3.10;;
7444;SDS011;3764;48.126;11.594;2022-11-20T03:06:29;3.03;;;2.72;;
7444;SDS011;3764;48.126;11.594;2022-11-20T03:08:56;3.35;;;3.00;;
7444;SDS011;3764;48.126;11.594;2022-11-20T03:11:23;4.88;;;3.67;;
7444;SDS011;3764;48.126;11.594;2022-11-20T03:13:52;3.40;;;2.92;;
7444;SDS011;3764;48.126;11.594;2022-11-20T03:16:19;4.82;;;2.90;;
7444;SDS011;3764;48.126;11.594;2022-11-20T03:18:48;4.75;;;2.55;;
7444;SDS011;3764;48.126;11.594;2022-11-20T03:21:15;2.75;;;2.30;;
7444;SDS011;3764;48.126;11.594;2022-11-20T03:23:42;3.55;;;2.97;;
7444;SDS011;3764;48.126;11.594;2022-11-20T03:26:10;3.38;;;2.50;;
7444;SDS011;3764;48.126;11.594;2022-11-20T03:28:39;4.10;;;3.10;;
7444;SDS011;3764;48.126;11.594;2022-11-20T03:31:09;4.68;;;2.83;;
7444;SDS011;3764;48.126;11.594;2022-11-20T03:33:37;3.30;;;2.80;;
7444;SDS011;3764;48.126;11.594;2022-11-20T03:36:05;5.43;;;2.90;;
7444;SDS011;3764;48.126;11.594;2022-11-20T03:38:34;3.75;;;2.80;;
7444;SDS011;3764;48.126;11.594;2022-11-20T03:41:02;3.70;;;3.20;;
7444;SDS011;3764;48.126;11.594;2022-11-20T03:43:30;4.47;;;2.95;;
7444;SDS011;3764;48.126;11.594;2022-11-20T03:45:57;4.20;;;3.55;;
7444;SDS011;3764;48.126;11.594;2022-11-20T03:48:26;5.85;;;3.42;;
7444;SDS011;3764;48.126;11.594;2022-11-20T03:50:54;3.75;;;3.17;;
7444;SDS011;3764;48.126;11.594;2022-11-20T03:53:33;3.30;;;2.90;;
7444;SDS011;3764;48.126;11.594;2022-11-20T03:56:00;2.90;;;2.40;;
7444;SDS011;3764;48.126;11.594;2022-11-20T03:58:28;6.55;;;3.10;;
7444;SDS011;3764;48.126;11.594;2022-11-20T04:00:55;3.55;;;3.15;;
7444;SDS011;3764;48.126;11.594;2022-11-20T04:03:22;3.35;;;2.85;;
7444;SDS011;3764;48.126;11.594;2022-11-20T04:05:51;5.13;;;3.10;;
7444;SDS011;3764;48.126;11.594;2022-11-20T04:08:18;4.18;;;2.90;;
7444;SDS011;3764;48.126;11.594;2022-11-20T04:10:45;4.35;;;2.70;;
7444;SDS011;3764;48.126;11.594;2022-11-20T04:13:12;3.92;;;3.53;;
7444;SDS011;3764;48.126;11.594;2022-11-20T04:15:39;5.93;;;3.90;;
7444;SDS011;3764;48.126;11.594;2022-11-20T04:18:06;4.53;;;3.75;;
7444;SDS011;3764;48.126;11.594;2022-11-20T04:20:33;4.80;;;3.75;;
7444;SDS011;3764;48.126;11.594;2022-11-20T04:23:02;4.13;;;3.53;;
7444;SDS011;3764;48.126;11.594;2022-11-20T04:25:29;3.28;;;2.90;;
7444;SDS011;3764;48.126;11.594;2022-11-20T04:27:56;4.30;;;3.40;;
7444;SDS011;3764;48.126;11.594;2022-11-20T04:30:23;4.70;;;2.50;;
7444;SDS011;3764;48.126;11.594;2022-11-20T04:32:50;3.15;;;2.67;;
7444;SDS011;3764;48.126;11.594;2022-11-20T04:35:18;5.60;;;2.80;;
7444;SDS011;3764;48.126;11.594;2022-11-20T04:37:45;3.45;;;2.63;;
7444;SDS011;3764;48.126;11.594;2022-11-20T04:40:13;5.68;;;2.70;;
7444;SDS011;3764;48.126;11.594;2022-11-20T04:42:41;4.10;;;3.10;;
7444;SDS011;3764;48.126;11.594;2022-11-20T04:45:08;3.20;;;2.90;;
7444;SDS011;3764;48.126;11.594;2022-11-20T04:47:35;2.90;;;2.40;;
7444;SDS011;3764;48.126;11.594;2022-11-20T04:50:02;3.78;;;3.20;;
7444;SDS011;3764;48.126;11.594;2022-11-20T04:52:29;2.72;;;2.50;;
7444;SDS011;3764;48.126;11.594;2022-11-20T04:54:57;2.85;;;2.55;;
7444;SDS011;3764;48.126;11.594;2022-11-20T04:57:25;4.25;;;3.58;;
7444;SDS011;3764;48.126;11.594;2022-11-20T04:59:52;3.45;;;2.85;;
7444;SDS011;3764;48.126;11.594;2022-11-20T05:02:19;3.08;;;2.75;;
7444;SDS011;3764;48.126;11.594;2022-11-20T05:04:46;4.70;;;2.97;;
7444;SDS011;3764;48.126;11.594;2022-11-20T05:07:13;3.38;;;2.85;;
7444;SDS011;3764;48.126;11.594;2022-11-20T05:09:41;3.95;;;3.30;;
7444;SDS011;3764;48.126;11.594;2022-11-20T05:12:08;4.57;;;3.42;;
7444;SDS011;3764;48.126;11.594;2022-11-20T05:14:37;4.85;;;3.83;;
7444;SDS011;3764;48.126;11.594;2022-11-20T05:17:04;4.72;;;3.10;;
7444;SDS011;3764;48.126;11.594;2022-11-20T05:19:31;5.40;;;3.05;;
7444;SDS011;3764;48.126;11.594;2022-11-20T05:21:58;4.28;;;3.70;;
7444;SDS011;3764;48.126;11.594;2022-11-20T05:24:25;5.07;;;3.40;;
7444;SDS011;3764;48.126;11.594;2022-11-20T05:26:52;3.95;;;3.33;;
7444;SDS011;3764;48.126;11.594;2022-11-20T05:29:19;3.50;;;3.17;;
7444;SDS011;3764;48.126;11.594;2022-11-20T05:31:47;4.00;;;3.22;;
7444;SDS011;3764;48.126;11.594;2022-11-20T05:34:14;4.13;;;3.40;;
7444;SDS011;3764;48.126;11.594;2022-11-20T05:36:42;3.72;;;3.15;;
7444;SDS011;3764;48.126;11.594;2022-11-20T05:39:09;4.03;;;3.08;;
7444;SDS011;3764;48.126;11.594;2022-11-20T05:41:36;4.80;;;2.97;;
7444;SDS011;3764;48.126;11.594;2022-11-20T05:44:03;4.82;;;3.50;;
7444;SDS011;3764;48.126;11.594;2022-11-20T05:46:30;5.97;;;3.08;;
7444;SDS011;3764;48.126;11.594;2022-11-20T05:48:59;2.97;;;2.55;;
7444;SDS011;3764;48.126;11.594;2022-11-20T05:51:26;3.97;;;3.05;;
7444;SDS011;3764;48.126;11.594;2022-11-20T05:53:53;3.42;;;3.03;;
7444;SDS011;3764;48.126;11.594;2022-11-20T05:56:22;3.78;;;2.83;;
7444;SDS011;3764;48.126;11.594;2022-11-20T05:58:49;5.10;;;3.25;;
7444;SDS011;3764;48.126;11.594;2022-11-20T06:01:17;3.78;;;2.90;;
7444;SDS011;3764;48.126;11.594;2022-11-20T06:03:46;4.80;;;3.33;;
7444;SDS011;3764;48.126;11.594;2022-11-20T06:06:17;4.82;;;3.00;;
7444;SDS011;3764;48.126;11.594;2022-11-20T06:08:44;5.65;;;3.28;;
7444;SDS011;3764;48.126;11.594;2022-11-20T06:11:12;2.85;;;2.40;;
7444;SDS011;3764;48.126;11.594;2022-11-20T06:13:40;4.30;;;2.65;;
7444;SDS011;3764;48.126;11.594;2022-11-20T06:16:08;3.17;;;2.70;;
7444;SDS011;3764;48.126;11.594;2022-11-20T06:18:35;3.05;;;2.72;;
7444;SDS011;3764;48.126;11.594;2022-11-20T06:21:04;3.25;;;2.80;;
7444;SDS011;3764;48.126;11.594;2022-11-20T06:23:34;4.72;;;3.22;;
7444;SDS011;3764;48.126;11.594;2022-11-20T06:26:02;4.00;;;3.15;;
7444;SDS011;3764;48.126;11.594;2022-11-20T06:28:31;3.28;;;2.90;;
7444;SDS011;3764;48.126;11.594;2022-11-20T06:30:58;4.25;;;2.65;;
7444;SDS011;3764;48.126;11.594;2022-11-20T06:33:25;2.90;;;2.55;;
7444;SDS011;3764;48.126;11.594;2022-11-20T06:35:55;2.70;;;2.30;;
7444;SDS011;3764;48.126;11.594;2022-11-20T06:38:23;2.40;;;2.20;;
7444;SDS011;3764;48.126;11.594;2022-11-20T06:40:52;2.60;;;2.40;;
7444;SDS011;3764;48.126;11.594;2022-11-20T06:43:19;2.50;;;2.15;;
7444;SDS011;3764;48.126;11.594;2022-11-20T06:45:51;6.63;;;2.40;;
7444;SDS011;3764;48.126;11.594;2022-11-20T06:48:19;6.80;;;2.33;;
7444;SDS011;3764;48.126;11.594;2022-11-20T06:50:46;4.22;;;2.72;;
7444;SDS011;3764;48.126;11.594;2022-11-20T06:53:13;3.50;;;2.40;;
7444;SDS011;3764;48.126;11.594;2022-11-20T06:55:41;2.22;;;2.00;;
7444;SDS011;3764;48.126;11.594;2022-11-20T06:58:11;2.72;;;2.45;;
7444;SDS011;3764;48.126;11.594;2022-11-20T07:00:39;2.53;;;1.90;;
7444;SDS011;3764;48.126;11.594;2022-11-20T07:03:06;2.63;;;2.40;;
7444;SDS011;3764;48.126;11.594;2022-11-20T07:05:34;2.38;;;2.10;;
7444;SDS011;3764;48.126;11.594;2022-11-20T07:08:02;3.67;;;2.25;;
7444;SDS011;3764;48.126;11.594;2022-11-20T07:10:29;4.97;;;2.35;;
7444;SDS011;3764;48.126;11.594;2022-11-20T07:12:57;3.00;;;1.73;;
7444;SDS011;3764;48.126;11.594;2022-11-20T07:15:25;3.65;;;1.88;;
7444;SDS011;3764;48.126;11.594;2022-11-20T07:17:53;3.05;;;2.45;;
7444;SDS011;3764;48.126;11.594;2022-11-20T07:20:20;2.50;;;2.17;;
7444;SDS011;3764;48.126;11.594;2022-11-20T07:22:47;3.38;;;2.47;;
7444;SDS011;3764;48.126;11.594;2022-11-20T07:25:20;3.17;;;2.72;;
7444;SDS011;3764;48.126;11.594;2022-11-20T07:27:47;4.18;;;3.45;;
7444;SDS011;3764;48.126;11.594;2022-11-20T07:30:14;3.70;;;3.00;;
7444;SDS011;3764;48.126;11.594;2022-11-20T07:32:42;3.58;;;2.85;;
7444;SDS011;3764;48.126;11.594;2022-11-20T07:35:13;4.45;;;2.90;;
7444;SDS011;3764;48.126;11.594;2022-11-20T07:37:40;3.47;;;2.75;;
7444;SDS011;3764;48.126;11.594;2022-11-20T07:40:07;3.28;;;2.95;;
7444;SDS011;3764;48.126;11.594;2022-11-20T07:42:35;4.55;;;2.80;;
7444;SDS011;3764;48.126;11.594;2022-11-20T07:45:02;5.45;;;3.80;;
7444;SDS011;3764;48.126;11.594;2022-11-20T07:47:34;3.85;;;3.35;;
7444;SDS011;3764;48.126;11.594;2022-11-20T07:50:03;3.40;;;2.50;;
7444;SDS011;3764;48.126;11.594;2022-11-20T07:52:31;5.25;;;3.40;;
7444;SDS011;3764;48.126;11.594;2022-11-20T07:54:58;5.45;;;3.25;;
7444;SDS011;3764;48.126;11.594;2022-11-20T07:57:25;3.10;;;2.80;;
7444;SDS011;3764;48.126;11.594;2022-11-20T07:59:52;4.80;;;2.50;;
7444;SDS011;3764;48.126;11.594;2022-11-20T08:02:19;5.15;;;2.70;;
7444;SDS011;3764;48.126;11.594;2022-11-20T08:04:46;2.92;;;2.05;;
7444;SDS011;3764;48.126;11.594;2022-11-20T08:07:14;4.60;;;2.90;;
7444;SDS011;3764;48.126;11.594;2022-11-20T08:09:42;3.10;;;2.60;;
7444;SDS011;3764;48.126;11.594;2022-11-20T08:12:09;3.38;;;2.80;;
7444;SDS011;3764;48.126;11.594;2022-11-20T08:15:01;3.10;;;2.63;;
7444;SDS011;3764;48.126;11.594;2022-11-20T08:17:29;2.85;;;2.55;;
7444;SDS011;3764;48.126;11.594;2022-11-20T08:19:56;3.15;;;2.55;;
7444;SDS011;3764;48.126;11.594;2022-11-20T08:22:25;3.33;;;2.42;;
7444;SDS011;3764;48.126;11.594;2022-11-20T08:24:52;3.45;;;2.88;;
7444;SDS011;3764;48.126;11.594;2022-11-20T08:27:19;2.88;;;2.45;;
7444;SDS011;3764;48.126;11.594;2022-11-20T08:29:46;2.67;;;2.38;;
7444;SDS011;3764;48.126;11.594;2022-11-20T08:32:13;3.35;;;2.45;;
7444;SDS011;3764;48.126;11.594;2022-11-20T08:34:40;3.30;;;2.35;;
7444;SDS011;3764;48.126;11.594;2022-11-20T08:37:07;3.42;;;2.22;;
7444;SDS011;3764;48.126;11.594;2022-11-20T08:39:36;3.03;;;2.72;;
7444;SDS011;3764;48.126;11.594;2022-11-20T08:42:06;4.15;;;3.20;;
7444;SDS011;3764;48.126;11.594;2022-11-20T08:44:33;3.40;;;2.55;;
7444;SDS011;3764;48.126;11.594;2022-11-20T08:47:00;4.03;;;2.53;;
7444;SDS011;3764;48.126;11.594;2022-11-20T08:49:27;2.38;;;1.90;;
7444;SDS011;3764;48.126;11.594;2022-11-20T08:51:54;6.03;;;2.50;;
7444;SDS011;3764;48.126;11.594;2022-11-20T08:54:23;4.60;;;2.92;;
7444;SDS011;3764;48.126;11.594;2022-11-20T08:56:51;3.30;;;2.45;;
7444;SDS011;3764;48.126;11.594;2022-11-20T08:59:18;2.33;;;2.00;;
7444;SDS011;3764;48.126;11.594;2022-11-20T09:01:45;2.03;;;1.83;;
7444;SDS011;3764;48.126;11.594;2022-11-20T09:04:12;3.50;;;2.25;;
7444;SDS011;3764;48.126;11.594;2022-11-20T09:06:40;2.90;;;2.45;;
7444;SDS011;3764;48.126;11.594;2022-11-20T09:09:07;2.85;;;2.28;;
7444;SDS011;3764;48.126;11.594;2022-11-20T09:11:34;2.50;;;1.95;;
7444;SDS011;3764;48.126;11.594;2022-11-20T09:14:03;4.43;;;2.08;;
7444;SDS011;3764;48.126;11.594;2022-11-20T09:16:30;3.53;;;1.75;;
7444;SDS011;3764;48.126;11.594;2022-11-20T09:18:57;1.98;;;1.77;;
7444;SDS011;3764;48.126;11.594;2022-11-20T09:21:24;2.47;;;1.80;;
7444;SDS011;3764;48.126;11.594;2022-11-20T09:23:51;3.10;;;2.00;;
7444;SDS011;3764;48.126;11.594;2022-11-20T09:26:18;3.00;;;1.98;;
7444;SDS011;3764;48.126;11.594;2022-11-20T09:28:45;4.75;;;2.40;;
7444;SDS011;3764;48.126;11.594;2022-11-20T09:31:17;2.03;;;1.83;;
7444;SDS011;3764;48.126;11.594;2022-11-20T09:33:48;2.78;;;2.28;;
7444;SDS011;3764;48.126;11.594;2022-11-20T09:36:15;1.98;;;1.75;;
7444;SDS011;3764;48.126;11.594;2022-11-20T09:38:43;2.15;;;1.85;;
7444;SDS011;3764;48.126;11.594;2022-11-20T09:41:16;2.65;;;2.22;;
7444;SDS011;3764;48.126;11.594;2022-11-20T09:43:58;2.10;;;1.73;;
7444;SDS011;3764;48.126;11.594;2022-11-20T09:46:34;3.08;;;2.40;;
7444;SDS011;3764;48.126;11.594;2022-11-20T09:49:15;3.85;;;2.70;;
7444;SDS011;3764;48.126;11.594;2022-11-20T09:51:52;1.63;;;1.50;;
7444;SDS011;3764;48.126;11.594;2022-11-20T09:54:26;3.17;;;1.90;;
7444;SDS011;3764;48.126;11.594;2022-11-20T09:56:59;2.00;;;1.60;;
7444;SDS011;3764;48.126;11.594;2022-11-20T09:59:33;3.30;;;2.10;;
7444;SDS011;3764;48.126;11.594;2022-11-20T10:04:56;2.95;;;1.70;;
7444;SDS011;3764;48.126;11.594;2022-11-20T10:07:29;2.22;;;1.55;;
7444;SDS011;3764;48.126;11.594;2022-11-20T10:10:02;1.70;;;1.60;;
7444;SDS011;3764;48.126;11.594;2022-11-20T10:12:32;2.67;;;1.63;;
7444;SDS011;3764;48.126;11.594;2022-11-20T10:15:22;2.05;;;1.42;;
7444;SDS011;3764;48.126;11.594;2022-11-20T10:18:05;2.10;;;1.60;;
7444;SDS011;3764;48.126;11.594;2022-11-20T10:20:40;3.30;;;1.70;;
7444;SDS011;3764;48.126;11.594;2022-11-20T10:23:17;2.25;;;1.40;;
7444;SDS011;3764;48.126;11.594;2022-11-20T10:26:12;3.85;;;1.90;;
7444;SDS011;3764;48.126;11.594;2022-11-20T10:28:49;1.80;;;1.42;;
7444;SDS011;3764;48.126;11.594;2022-11-20T10:31:33;3.97;;;1.48;;
7444;SDS011;3764;48.126;11.594;2022-11-20T10:34:05;1.98;;;1.50;;
7444;SDS011;3764;48.126;11.594;2022-11-20T10:36:34;5.53;;;3.80;;
7444;SDS011;3764;48.126;11.594;2022-11-20T10:39:06;8.35;;;5.07;;
7444;SDS011;3764;48.126;11.594;2022-11-20T10:41:43;2.05;;;1.85;;
7444;SDS011;3764;48.126;11.594;2022-11-20T10:44:16;4.45;;;2.78;;
7444;SDS011;3764;48.126;11.594;2022-11-20T10:47:11;4.10;;;1.98;;
7444;SDS011;3764;48.126;11.594;2022-11-20T10:49:43;3.03;;;1.95;;
7444;SDS011;3764;48.126;11.594;2022-11-20T10:52:15;2.47;;;1.38;;
7444;SDS011;3764;48.126;11.594;2022-11-20T10:54:53;1.55;;;1.20;;
7444;SDS011;3764;48.126;11.594;2022-11-20T10:57:31;2.53;;;1.80;;
7444;SDS011;3764;48.126;11.594;2022-11-20T11:00:11;2.85;;;1.65;;
7444;SDS011;3764;48.126;11.594;2022-11-20T11:02:43;1.30;;;1.10;;
7444;SDS011;3764;48.126;11.594;2022-11-20T11:05:17;1.45;;;1.33;;
7444;SDS011;3764;48.126;11.594;2022-11-20T11:07:52;3.10;;;2.70;;
7444;SDS011;3764;48.126;11.594;2022-11-20T11:10:22;2.25;;;1.70;;
7444;SDS011;3764;48.126;11.594;2022-11-20T11:12:52;2.95;;;1.77;;
7444;SDS011;3764;48.126;11.594;2022-11-20T11:15:26;2.92;;;1.58;;
7444;SDS011;3764;48.126;11.594;2022-11-20T11:17:55;1.70;;;1.45;;
7444;SDS011;3764;48.126;11.594;2022-11-20T11:20:24;3.13;;;2.70;;
7444;SDS011;3764;48.126;11.594;2022-11-20T11:22:53;3.60;;;2.83;;
7444;SDS011;3764;48.126;11.594;2022-11-20T11:25:23;3.88;;;2.75;;
7444;SDS011;3764;48.126;11.594;2022-11-20T11:27:52;2.92;;;1.55;;
7444;SDS011;3764;48.126;11.594;2022-11-20T11:30:21;2.78;;;2.55;;
7444;SDS011;3764;48.126;11.594;2022-11-20T11:32:50;2.65;;;1.50;;
7444;SDS011;3764;48.126;11.594;2022-11-20T11:35:21;1.55;;;1.30;;
7444;SDS011;3764;48.126;11.594;2022-11-20T11:37:52;1.88;;;1.67;;
7444;SDS011;3764;48.126;11.594;2022-11-20T11:40:21;3.20;;;1.25;;
7444;SDS011;3764;48.126;11.594;2022-11-20T11:42:56;4.40;;;1.80;;
7444;SDS011;3764;48.126;11.594;2022-11-20T11:45:25;2.25;;;1.40;;
7444;SDS011;3764;48.126;11.594;2022-11-20T11:47:51;1.73;;;1.30;;
7444;SDS011;3764;48.126;11.594;2022-11-20T11:50:22;1.48;;;1.38;;
7444;SDS011;3764;48.126;11.594;2022-11-20T11:52:58;1.90;;;1.65;;
7444;SDS011;3764;48.126;11.594;2022-11-20T11:55:33;1.90;;;1.55;;
7444;SDS011;3764;48.126;11.594;2022-11-20T11:58:08;2.38;;;1.85;;
7444;SDS011;3764;48.126;11.594;2022-11-20T12:00:41;2.95;;;1.73;;
7444;SDS011;3764;48.126;11.594;2022-11-20T12:03:18;1.90;;;1.70;;
7444;SDS011;3764;48.126;11.594;2022-11-20T12:05:49;3.60;;;1.55;;
7444;SDS011;3764;48.126;11.594;2022-11-20T12:08:25;2.63;;;1.92;;
7444;SDS011;3764;48.126;11.594;2022-11-20T12:10:57;2.90;;;1.45;;
7444;SDS011;3764;48.126;11.594;2022-11-20T12:13:36;2.25;;;1.80;;
7444;SDS011;3764;48.126;11.594;2022-11-20T12:16:14;2.30;;;1.85;;
7444;SDS011;3764;48.126;11.594;2022-11-20T12:18:45;1.65;;;1.35;;
7444;SDS011;3764;48.126;11.594;2022-11-20T12:21:18;2.35;;;1.52;;
7444;SDS011;3764;48.126;11.594;2022-11-20T12:27:05;1.30;;;1.10;;
7444;SDS011;3764;48.126;11.594;2022-11-20T12:29:52;2.42;;;1.85;;
7444;SDS011;3764;48.126;11.594;2022-11-20T12:32:38;1.50;;;1.40;;
7444;SDS011;3764;48.126;11.594;2022-11-20T12:35:29;1.75;;;1.40;;
7444;SDS011;3764;48.126;11.594;2022-11-20T12:38:08;2.58;;;2.35;;
7444;SDS011;3764;48.126;11.594;2022-11-20T12:40:52;2.00;;;1.80;;
7444;SDS011;3764;48.126;11.594;2022-11-20T12:43:28;2.10;;;1.65;;
7444;SDS011;3764;48.126;11.594;2022-11-20T12:46:18;2.47;;;1.90;;
7444;SDS011;3764;48.126;11.594;2022-11-20T12:49:02;2.55;;;1.40;;
7444;SDS011;3764;48.126;11.594;2022-11-20T12:54:52;1.90;;;1.70;;
7444;SDS011;3764;48.126;11.594;2022-11-20T12:57:44;1.20;;;1.10;;
7444;SDS011;3764;48.126;11.594;2022-11-20T13:00:18;2.33;;;1.40;;
7444;SDS011;3764;48.126;11.594;2022-11-20T13:02:56;3.35;;;2.40;;
7444;SDS011;3764;48.126;11.594;2022-11-20T13:05:36;2.05;;;1.48;;
7444;SDS011;3764;48.126;11.594;2022-11-20T13:08:13;1.98;;;1.77;;
7444;SDS011;3764;48.126;11.594;2022-11-20T13:10:47;2.00;;;1.80;;
7444;SDS011;3764;48.126;11.594;2022-11-20T13:13:19;2.47;;;2.08;;
7444;SDS011;3764;48.126;11.594;2022-11-20T13:15:54;2.35;;;2.03;;
7444;SDS011;3764;48.126;11.594;2022-11-20T13:18:25;3.03;;;2.03;;
7444;SDS011;3764;48.126;11.594;2022-11-20T13:20:52;2.50;;;2.08;;
7444;SDS011;3764;48.126;11.594;2022-11-20T13:23:23;4.55;;;2.40;;
7444;SDS011;3764;48.126;11.594;2022-11-20T13:25:51;3.65;;;2.42;;
7444;SDS011;3764;48.126;11.594;2022-11-20T13:28:30;2.03;;;1.50;;
7444;SDS011;3764;48.126;11.594;2022-11-20T13:30:58;2.38;;;1.77;;
7444;SDS011;3764;48.126;11.594;2022-11-20T13:33:28;1.90;;;1.75;;
7444;SDS011;3764;48.126;11.594;2022-11-20T13:35:58;2.30;;;2.10;;
7444;SDS011;3764;48.126;11.594;2022-11-20T13:38:26;3.05;;;2.15;;
7444;SDS011;3764;48.126;11.594;2022-11-20T13:40:55;2.63;;;2.17;;
7444;SDS011;3764;48.126;11.594;2022-11-20T13:43:28;9.35;;;2.33;;
7444;SDS011;3764;48.126;11.594;2022-11-20T13:46:03;2.53;;;1.92;;
7444;SDS011;3764;48.126;11.594;2022-11-20T13:48:32;2.45;;;1.90;;
7444;SDS011;3764;48.126;11.594;2022-11-20T13:51:09;3.38;;;2.35;;
7444;SDS011;3764;48.126;11.594;2022-11-20T13:53:56;5.70;;;2.63;;
7444;SDS011;3764;48.126;11.594;2022-11-20T13:56:40;2.95;;;2.05;;
7444;SDS011;3764;48.126;11.594;2022-11-20T13:59:18;4.53;;;2.35;;
7444;SDS011;3764;48.126;11.594;2022-11-20T14:02:01;3.55;;;3.13;;
7444;SDS011;3764;48.126;11.594;2022-11-20T14:04:29;3.85;;;2.80;;
7444;SDS011;3764;48.126;11.594;2022-11-20T14:06:59;2.40;;;1.85;;
7444;SDS011;3764;48.126;11.594;2022-11-20T14:09:27;5.10;;;3.50;;
7444;SDS011;3764;48.126;11.594;2022-11-20T14:11:56;2.95;;;2.55;;
7444;SDS011;3764;48.126;11.594;2022-11-20T14:14:24;2.78;;;2.25;;
7444;SDS011;3764;48.126;11.594;2022-11-20T14:16:52;4.07;;;2.83;;
7444;SDS011;3764;48.126;11.594;2022-11-20T14:19:32;4.47;;;3.17;;
7444;SDS011;3764;48.126;11.594;2022-11-20T14:22:09;2.55;;;2.10;;
7444;SDS011;3764;48.126;11.594;2022-11-20T14:24:43;3.45;;;2.22;;
7444;SDS011;3764;48.126;11.594;2022-11-20T14:27:11;4.05;;;2.50;;
7444;SDS011;3764;48.126;11.594;2022-11-20T14:29:40;2.30;;;2.10;;
7444;SDS011;3764;48.126;11.594;2022-11-20T14:32:09;4.65;;;2.97;;
7444;SDS011;3764;48.126;11.594;2022-11-20T14:34:39;1.70;;;1.60;;
7444;SDS011;3764;48.126;11.594;2022-11-20T14:37:10;2.10;;;1.90;;
7444;SDS011;3764;48.126;11.594;2022-11-20T14:39:40;3.05;;;2.10;;
7444;SDS011;3764;48.126;11.594;2022-11-20T14:42:14;3.83;;;2.88;;
7444;SDS011;3764;48.126;11.594;2022-11-20T14:44:43;4.80;;;2.80;;
7444;SDS011;3764;48.126;11.594;2022-11-20T14:47:11;2.20;;;1.70;;
7444;SDS011;3764;48.126;11.594;2022-11-20T14:49:42;2.90;;;1.95;;
7444;SDS011;3764;48.126;11.594;2022-11-20T14:52:11;1.88;;;1.40;;
7444;SDS011;3764;48.126;11.594;2022-11-20T14:54:43;2.15;;;1.70;;
7444;SDS011;3764;48.126;11.594;2022-11-20T14:57:20;1.67;;;1.58;;
7444;SDS011;3764;48.126;11.594;2022-11-20T14:59:49;1.67;;;1.42;;
7444;SDS011;3764;48.126;11.594;2022-11-20T15:02:16;1.48;;;1.23;;
7444;SDS011;3764;48.126;11.594;2022-11-20T15:04:48;1.30;;;1.20;;
7444;SDS011;3764;48.126;11.594;2022-11-20T15:07:23;4.70;;;1.90;;
7444;SDS011;3764;48.126;11.594;2022-11-20T15:10:02;2.00;;;1.80;;
7444;SDS011;3764;48.126;11.594;2022-11-20T15:12:30;6.22;;;3.35;;
7444;SDS011;3764;48.126;11.594;2022-11-20T15:14:58;2.25;;;1.50;;
7444;SDS011;3764;48.126;11.594;2022-11-20T15:17:26;1.55;;;1.35;;
7444;SDS011;3764;48.126;11.594;2022-11-20T15:19:55;1.52;;;1.42;;
7444;SDS011;3764;48.126;11.594;2022-11-20T15:22:22;1.08;;;0.90;;
7444;SDS011;3764;48.126;11.594;2022-11-20T15:24:49;1.52;;;1.17;;
7444;SDS011;3764;48.126;11.594;2022-11-20T15:27:16;1.88;;;1.52;;
7444;SDS011;3764;48.126;11.594;2022-11-20T15:29:43;2.33;;;1.30;;
7444;SDS011;3764;48.126;11.594;2022-11-20T15:32:10;2.28;;;1.65;;